createdAt,value
2019-03-02T00:01:48.718Z,99857.45
2019-03-02T00:04:15.372Z,99854.51
2019-03-02T00:06:42.493Z,99854.51
2019-03-02T00:09:09.877Z,99857.52
2019-03-02T00:11:36.845Z,99861.30
2019-03-02T00:14:03.856Z,99865.92
2019-03-02T00:16:31.185Z,99858.28
2019-03-02T00:18:58.438Z,99859.94
2019-03-02T00:21:27.688Z,99860.31
2019-03-02T00:23:55.279Z,99864.14
2019-03-02T00:26:24.293Z,99854.40
2019-03-02T00:28:51.575Z,99855.25
2019-03-02T00:31:19.034Z,99859.47
2019-03-02T00:33:46.308Z,99865.80
2019-03-02T00:36:16.033Z,99857.78
2019-03-02T00:38:43.472Z,99849.77
2019-03-02T00:41:10.741Z,99851.88
2019-03-02T00:43:37.758Z,99847.66
2019-03-02T00:46:05.591Z,99845.48
2019-03-02T00:48:32.573Z,99846.39
2019-03-02T00:50:59.528Z,99850.24
2019-03-02T00:53:26.813Z,99846.41
2019-03-02T00:55:54.026Z,99853.14
2019-03-02T00:58:20.943Z,99846.37
2019-03-02T01:00:50.032Z,99845.98
2019-03-02T01:03:16.924Z,99849.34
2019-03-02T01:05:43.896Z,99849.31
2019-03-02T01:08:11.085Z,99850.58
2019-03-02T01:10:37.984Z,99848.45
2019-03-02T01:13:04.914Z,99848.05
2019-03-02T01:15:31.890Z,99845.91
2019-03-02T01:17:58.863Z,99844.66
2019-03-02T01:20:28.679Z,99848.05
2019-03-02T01:22:54.958Z,99842.56
2019-03-02T01:25:22.908Z,99840.39
2019-03-02T01:27:49.844Z,99844.61
2019-03-02T01:30:18.446Z,99844.62
2019-03-02T01:32:48.830Z,99841.70
2019-03-02T01:35:16.561Z,99839.61
2019-03-02T01:37:43.921Z,99841.75
2019-03-02T01:40:13.521Z,99842.20
2019-03-02T01:42:40.526Z,99837.55
2019-03-02T01:45:07.506Z,99834.17
2019-03-02T01:47:34.455Z,99834.59
2019-03-02T01:50:01.752Z,99837.98
2019-03-02T01:52:30.609Z,99842.59
2019-03-02T01:54:57.336Z,99840.52
2019-03-02T01:57:24.616Z,99843.06
2019-03-02T01:59:51.550Z,99840.94
2019-03-02T02:02:18.481Z,99842.20
2019-03-02T02:04:45.652Z,99839.67
2019-03-02T02:07:14.403Z,99843.88
2019-03-02T02:09:41.565Z,99842.20
2019-03-02T02:12:09.855Z,99832.92
2019-03-02T02:14:36.824Z,99832.52
2019-03-02T02:17:03.765Z,99832.12
2019-03-02T02:19:31.114Z,99832.94
2019-03-02T02:22:02.140Z,99827.02
2019-03-02T02:24:28.271Z,99820.27
2019-03-02T02:26:55.292Z,99826.22
2019-03-02T02:29:22.264Z,99818.61
2019-03-02T02:31:49.200Z,99815.23
2019-03-02T02:34:21.685Z,99822.02
2019-03-02T02:36:44.971Z,99814.44
2019-03-02T02:39:11.945Z,99811.50
2019-03-02T02:41:39.202Z,99812.34
2019-03-02T02:44:06.487Z,99812.31
2019-03-02T02:46:34.492Z,99806.02
2019-03-02T02:49:05.604Z,99806.03
2019-03-02T02:51:30.491Z,99800.56
2019-03-02T02:53:57.490Z,99799.30
2019-03-02T02:56:24.448Z,99795.07
2019-03-02T02:58:55.619Z,99797.17
2019-03-02T03:01:20.387Z,99792.08
2019-03-02T03:03:47.361Z,99788.70
2019-03-02T03:06:14.280Z,99793.77
2019-03-02T03:08:41.635Z,99783.22
2019-03-02T03:11:08.679Z,99780.24
2019-03-02T03:13:35.983Z,99777.69
2019-03-02T03:16:04.227Z,99784.84
2019-03-02T03:18:31.206Z,99783.56
2019-03-02T03:20:58.109Z,99775.57
2019-03-02T03:23:26.422Z,99774.31
2019-03-02T03:25:57.047Z,99777.27
2019-03-02T03:28:25.980Z,99771.39
2019-03-02T03:30:50.984Z,99776.45
2019-03-02T03:33:17.933Z,99773.08
2019-03-02T03:35:44.898Z,99776.85
2019-03-02T03:38:11.877Z,99776.00
2019-03-02T03:40:38.826Z,99783.16
2019-03-02T03:43:05.730Z,99779.79
2019-03-02T03:45:32.742Z,99776.39
2019-03-02T03:47:59.730Z,99781.46
2019-03-02T03:50:26.700Z,99780.64
2019-03-02T03:52:53.988Z,99782.73
2019-03-02T03:55:24.898Z,99787.37
2019-03-02T03:57:49.596Z,99784.00
2019-03-02T04:00:16.507Z,99782.72
2019-03-02T04:02:43.882Z,99784.00
2019-03-02T04:05:10.829Z,99783.16
2019-03-02T04:07:37.842Z,99781.47
2019-03-02T04:10:04.851Z,99787.80
2019-03-02T04:12:31.805Z,99784.00
2019-03-02T04:15:01.456Z,99784.43
2019-03-02T04:17:27.368Z,99787.37
2019-03-02T04:19:54.329Z,99777.25
2019-03-02T04:22:21.759Z,99775.58
2019-03-02T04:24:48.745Z,99786.10
2019-03-02T04:27:17.202Z,99785.24
2019-03-02T04:29:49.826Z,99782.28
2019-03-02T04:32:13.832Z,99783.58
2019-03-02T04:34:42.059Z,99784.02
2019-03-02T04:37:09.375Z,99786.58
2019-03-02T04:39:36.390Z,99792.08
2019-03-02T04:42:03.394Z,99788.73
2019-03-02T04:44:33.162Z,99788.27
2019-03-02T04:47:00.121Z,99787.44
2019-03-02T04:49:27.489Z,99790.41
2019-03-02T04:51:54.504Z,99788.28
2019-03-02T04:54:22.770Z,99789.14
2019-03-02T04:56:50.050Z,99792.91
2019-03-02T04:59:18.608Z,99792.91
2019-03-02T05:01:46.326Z,99794.62
2019-03-02T05:04:13.761Z,99789.55
2019-03-02T05:06:41.101Z,99786.61
2019-03-02T05:09:08.049Z,99784.47
2019-03-02T05:11:35.456Z,99782.38
2019-03-02T05:14:04.294Z,99781.94
2019-03-02T05:16:32.477Z,99781.95
2019-03-02T05:18:59.841Z,99776.48
2019-03-02T05:21:35.033Z,99777.34
2019-03-02T05:24:03.374Z,99775.64
2019-03-02T05:26:31.321Z,99777.37
2019-03-02T05:28:58.718Z,99776.95
2019-03-02T05:31:25.998Z,99776.52
2019-03-02T05:33:52.944Z,99779.08
2019-03-02T05:36:23.025Z,99778.64
2019-03-02T05:38:48.494Z,99783.28
2019-03-02T05:41:15.495Z,99789.20
2019-03-02T05:43:42.866Z,99789.61
2019-03-02T05:46:09.850Z,99793.84
2019-03-02T05:48:42.867Z,99788.32
2019-03-02T05:51:08.117Z,99804.38
2019-03-02T05:53:35.102Z,99803.13
2019-03-02T05:56:02.709Z,99801.45
2019-03-02T05:58:29.701Z,99806.92
2019-03-02T06:00:56.680Z,99809.86
2019-03-02T06:03:25.970Z,99814.11
2019-03-02T06:05:54.349Z,99810.72
2019-03-02T06:08:21.740Z,99816.20
2019-03-02T06:10:49.165Z,99813.23
2019-03-02T06:13:16.145Z,99812.82
2019-03-02T06:15:46.336Z,99816.63
2019-03-02T06:18:11.793Z,99818.72
2019-03-02T06:20:38.789Z,99823.39
2019-03-02T06:23:05.765Z,99826.80
2019-03-02T06:25:32.812Z,99820.88
2019-03-02T06:28:00.103Z,99826.80
2019-03-02T06:30:27.349Z,99824.66
2019-03-02T06:32:54.740Z,99825.48
2019-03-02T06:35:24.196Z,99822.50
2019-03-02T06:37:52.991Z,99824.22
2019-03-02T06:40:23.533Z,99822.52
2019-03-02T06:42:48.774Z,99816.61
2019-03-02T06:45:16.223Z,99819.95
2019-03-02T06:47:43.489Z,99817.02
2019-03-02T06:50:12.169Z,99820.39
2019-03-02T06:52:39.114Z,99817.45
2019-03-02T06:55:06.072Z,99815.39
2019-03-02T06:57:33.042Z,99820.46
2019-03-02T07:00:00.364Z,99823.42
2019-03-02T07:02:27.298Z,99821.28
2019-03-02T07:04:57.794Z,99739.24
2019-03-02T07:07:22.976Z,99818.31
2019-03-02T07:09:49.915Z,99821.70
2019-03-02T07:12:16.831Z,99818.70
2019-03-02T07:14:44.185Z,99825.86
2019-03-02T07:17:11.543Z,99831.36
2019-03-02T07:19:38.523Z,99827.56
2019-03-02T07:22:05.510Z,99834.31
2019-03-02T07:24:32.781Z,99838.09
2019-03-02T07:27:00.176Z,99833.00
2019-03-02T07:29:27.099Z,99835.53
2019-03-02T07:31:54.392Z,99839.31
2019-03-02T07:34:21.734Z,99836.77
2019-03-02T07:36:48.829Z,99832.92
2019-03-02T07:39:15.779Z,99842.20
2019-03-02T07:41:43.034Z,99839.67
2019-03-02T07:44:10.405Z,99841.37
2019-03-02T07:46:37.444Z,99845.17
2019-03-02T07:49:04.827Z,99833.77
2019-03-02T07:51:31.851Z,99832.93
2019-03-02T07:54:02.167Z,99837.11
2019-03-02T07:56:29.584Z,99836.25
2019-03-02T07:58:59.172Z,99832.88
2019-03-02T08:01:26.309Z,99832.88
2019-03-02T08:03:55.940Z,99837.92
2019-03-02T08:06:25.623Z,99832.84
2019-03-02T08:08:51.093Z,99833.23
2019-03-02T08:11:19.793Z,99839.56
2019-03-02T08:13:46.879Z,99845.05
2019-03-02T08:16:15.645Z,99850.94
2019-03-02T08:18:42.733Z,99849.28
2019-03-02T08:21:09.917Z,99849.69
2019-03-02T08:23:37.186Z,99837.41
2019-03-02T08:26:04.727Z,99833.13
2019-03-02T08:28:32.198Z,99827.62
2019-03-02T08:30:59.386Z,99832.70
2019-03-02T08:33:26.431Z,99834.36
2019-03-02T08:35:53.558Z,99841.98
2019-03-02T08:38:20.553Z,99841.98
2019-03-02T08:40:47.619Z,99844.09
2019-03-02T08:43:16.476Z,99835.20
2019-03-02T08:45:43.305Z,99826.73
2019-03-02T08:48:10.291Z,99823.36
2019-03-02T08:50:37.316Z,99819.52
2019-03-02T08:53:04.333Z,99817.79
2019-03-02T08:55:33.590Z,99812.30
2019-03-02T08:58:00.301Z,99820.73
2019-03-02T09:00:28.335Z,99822.48
2019-03-02T09:03:00.430Z,99817.85
2019-03-02T09:05:45.880Z,99820.83
2019-03-02T09:07:56.175Z,99819.52
2019-03-02T09:10:23.736Z,99818.19
2019-03-02T09:12:57.969Z,99820.70
2019-03-02T09:15:26.267Z,99826.17
2019-03-02T09:17:54.222Z,99830.78
2019-03-02T09:20:20.542Z,99833.29
2019-03-02T09:22:47.765Z,99828.25
2019-03-02T09:25:15.338Z,99834.63
2019-03-02T09:27:42.308Z,99837.12
2019-03-02T09:30:09.332Z,99832.47
2019-03-02T09:32:36.444Z,99828.22
2019-03-02T09:35:03.431Z,99834.53
2019-03-02T09:37:30.722Z,99827.75
2019-03-02T09:39:58.944Z,99820.55
2019-03-02T09:42:28.934Z,99824.38
2019-03-02T09:44:55.975Z,99826.89
2019-03-02T09:47:23.286Z,99826.88
2019-03-02T09:49:50.259Z,99826.88
2019-03-02T09:52:17.270Z,99825.61
2019-03-02T09:54:44.613Z,99831.19
2019-03-02T09:57:11.623Z,99831.73
2019-03-02T09:59:42.018Z,99834.74
2019-03-02T10:02:10.587Z,99832.55
2019-03-02T10:04:39.450Z,99836.73
2019-03-02T10:07:08.798Z,99838.30
2019-03-02T10:09:37.766Z,99835.70
2019-03-02T10:12:09.991Z,99833.07
2019-03-02T10:14:39.865Z,99821.23
2019-03-02T10:17:06.838Z,99825.81
2019-03-02T10:19:34.529Z,99825.31
2019-03-02T10:22:01.483Z,99828.73
2019-03-02T10:24:28.512Z,99832.11
2019-03-02T10:26:55.471Z,99835.05
2019-03-02T10:29:22.683Z,99832.11
2019-03-02T10:31:50.738Z,99834.69
2019-03-02T10:34:17.723Z,99832.20
2019-03-02T10:36:44.938Z,99829.38
2019-03-02T10:39:12.080Z,99825.52
2019-03-02T10:41:39.777Z,99827.99
2019-03-02T10:44:06.757Z,99826.23
2019-03-02T10:46:33.706Z,99829.98
2019-03-02T10:49:00.609Z,99830.80
2019-03-02T10:51:27.947Z,99833.28
2019-03-02T10:53:55.850Z,99830.84
2019-03-02T10:56:24.720Z,99830.01
2019-03-02T10:58:52.118Z,99829.14
2019-03-02T11:01:19.424Z,99826.99
2019-03-02T11:03:46.720Z,99817.67
2019-03-02T11:06:14.120Z,99821.91
2019-03-02T11:08:41.453Z,99815.56
2019-03-02T11:11:08.414Z,99814.73
2019-03-02T11:13:35.400Z,99812.30
2019-03-02T11:16:02.698Z,99819.20
2019-03-02T11:18:30.903Z,99816.31
2019-03-02T11:21:00.077Z,99814.69
2019-03-02T11:23:27.174Z,99818.95
2019-03-02T11:25:55.789Z,99810.91
2019-03-02T11:30:57.839Z,99813.69
2019-03-02T11:33:27.533Z,99811.58
2019-03-02T11:35:58.256Z,99808.57
2019-03-02T11:38:25.202Z,99809.80
2019-03-02T11:40:52.475Z,99815.28
2019-03-02T11:43:19.531Z,99811.15
2019-03-02T11:45:50.239Z,99810.31
2019-03-02T11:48:19.580Z,99810.71
2019-03-02T11:50:52.458Z,99810.38
2019-03-02T11:53:23.867Z,99813.42
2019-03-02T11:55:50.119Z,99818.47
2019-03-02T11:58:17.587Z,99814.19
2019-03-02T12:00:44.957Z,99814.55
2019-03-02T12:03:11.945Z,99816.66
2019-03-02T12:05:40.376Z,99810.26
2019-03-02T12:08:07.454Z,99807.72
2019-03-02T12:10:34.912Z,99804.77
2019-03-02T12:13:03.701Z,99795.90
2019-03-02T12:15:30.906Z,99801.36
2019-03-02T12:17:57.903Z,99800.06
2019-03-02T12:20:24.941Z,99796.66
2019-03-02T12:22:52.789Z,99794.98
2019-03-02T12:25:19.745Z,99785.22
2019-03-02T12:27:46.723Z,99788.17
2019-03-02T12:30:13.802Z,99785.99
2019-03-02T12:32:44.305Z,99782.63
2019-03-02T12:35:09.640Z,99779.69
2019-03-02T12:37:37.369Z,99779.22
2019-03-02T12:40:20.902Z,99772.44
2019-03-02T12:42:48.025Z,99771.97
2019-03-02T12:45:15.143Z,99768.59
2019-03-02T12:50:18.906Z,99753.71
2019-03-02T13:07:39.565Z,99752.52
2019-03-02T13:10:06.534Z,99753.83
2019-03-02T13:12:33.745Z,99755.02
2019-03-02T13:15:00.725Z,99750.73
2019-03-02T13:17:27.998Z,99757.05
2019-03-02T13:19:55.004Z,99752.73
2019-03-02T13:22:21.994Z,99749.82
2019-03-02T13:24:48.951Z,99751.48
2019-03-02T13:27:16.114Z,99748.92
2019-03-02T13:29:43.097Z,99742.97
2019-03-02T13:32:10.143Z,99734.92
2019-03-02T13:34:37.101Z,99733.64
2019-03-02T13:37:04.313Z,99732.78
2019-03-02T13:39:31.739Z,99733.61
2019-03-02T13:41:58.747Z,99734.05
2019-03-02T13:44:25.956Z,99729.80
2019-03-02T13:46:52.970Z,99726.40
2019-03-02T13:49:20.247Z,99735.67
2019-03-02T13:51:47.295Z,99731.86
2019-03-02T13:54:14.601Z,99736.06
2019-03-02T13:56:42.900Z,99728.44
2019-03-02T13:59:09.895Z,99730.14
2019-03-02T14:01:36.893Z,99718.37
2019-03-02T14:04:03.831Z,99723.88
2019-03-02T14:06:30.717Z,99720.98
2019-03-02T14:08:57.913Z,99720.13
2019-03-02T14:11:25.210Z,99716.27
2019-03-02T14:13:53.354Z,99715.83
2019-03-02T14:16:20.263Z,99722.18
2019-03-02T14:18:47.314Z,99720.87
2019-03-02T14:21:15.901Z,99714.99
2019-03-02T14:23:43.317Z,99718.37
2019-03-02T14:26:10.289Z,99714.99
2019-03-02T14:28:38.302Z,99715.79
2019-03-02T14:31:05.547Z,99714.12
2019-03-02T14:33:33.004Z,99712.88
2019-03-02T14:36:00.264Z,99709.06
2019-03-02T14:38:27.759Z,99710.33
2019-03-02T14:40:57.691Z,99710.69
2019-03-02T14:43:24.698Z,99713.16
2019-03-02T14:45:51.742Z,99708.06
2019-03-02T14:48:19.205Z,99709.28
2019-03-02T14:50:46.117Z,99705.50
2019-03-02T14:53:13.009Z,99699.56
2019-03-02T14:55:40.331Z,99699.17
2019-03-02T14:58:07.885Z,99697.91
2019-03-02T15:00:35.422Z,99694.93
2019-03-02T15:03:02.636Z,99690.28
2019-03-02T15:05:29.649Z,99693.27
2019-03-02T15:07:58.954Z,99694.53
2019-03-02T15:10:26.840Z,99692.39
2019-03-02T15:12:54.210Z,99694.95
2019-03-02T15:15:21.211Z,99689.09
2019-03-02T15:17:50.671Z,99686.53
2019-03-02T15:20:18.061Z,99684.42
2019-03-02T15:22:45.024Z,99685.69
2019-03-02T15:25:11.907Z,99690.34
2019-03-02T15:27:38.914Z,99691.16
2019-03-02T15:30:06.173Z,99686.89
2019-03-02T15:32:34.094Z,99685.21
2019-03-02T15:35:01.065Z,99685.78
2019-03-02T15:37:41.988Z,99693.41
2019-03-02T15:40:09.294Z,99688.01
2019-03-02T15:42:36.989Z,99682.05
2019-03-02T15:45:03.964Z,99690.03
2019-03-02T15:47:30.969Z,99683.28
2019-03-02T15:49:57.998Z,99679.92
2019-03-02T15:52:25.288Z,99682.01
2019-03-02T15:54:52.174Z,99679.09
2019-03-02T15:57:19.048Z,99681.23
2019-03-02T15:59:46.367Z,99678.65
2019-03-02T16:02:13.336Z,99681.63
2019-03-02T16:04:40.564Z,99678.22
2019-03-02T16:07:07.566Z,99680.41
2019-03-02T16:09:35.525Z,99675.75
2019-03-02T16:12:04.067Z,99676.17
2019-03-02T16:14:32.769Z,99672.80
2019-03-02T16:17:03.621Z,99669.83
2019-03-02T16:19:30.288Z,99672.74
2019-03-02T16:21:58.628Z,99676.53
2019-03-02T16:24:25.648Z,99675.23
2019-03-02T16:26:54.075Z,99673.92
2019-03-02T16:29:21.182Z,99678.65
2019-03-02T16:31:49.030Z,99677.38
2019-03-02T16:34:15.978Z,99674.36
2019-03-02T16:36:43.150Z,99671.03
2019-03-02T16:39:10.528Z,99672.33
2019-03-02T16:41:37.862Z,99668.52
2019-03-02T16:44:04.805Z,99671.43
2019-03-02T16:46:34.986Z,99670.55
2019-03-02T16:49:01.059Z,99673.50
2019-03-02T16:51:30.502Z,99675.63
2019-03-02T16:53:58.623Z,99672.74
2019-03-02T16:56:26.740Z,99668.58
2019-03-02T16:58:56.804Z,99664.39
2019-03-02T17:01:24.823Z,99661.50
2019-03-02T17:03:52.102Z,99664.00
2019-03-02T17:06:19.087Z,99668.25
2019-03-02T17:08:46.651Z,99666.58
2019-03-02T17:11:13.882Z,99663.17
2019-03-02T17:13:40.963Z,99660.98
2019-03-02T17:16:08.000Z,99662.20
2019-03-02T17:18:35.476Z,99657.86
2019-03-02T17:21:02.815Z,99654.05
2019-03-02T17:23:29.823Z,99658.36
2019-03-02T17:25:59.709Z,99657.11
2019-03-02T17:28:26.724Z,99656.23
2019-03-02T17:30:53.767Z,99651.60
2019-03-02T17:33:22.579Z,99655.41
2019-03-02T17:35:49.912Z,99651.65
2019-03-02T17:38:18.533Z,99651.70
2019-03-02T17:40:46.682Z,99649.20
2019-03-02T17:43:13.775Z,99649.55
2019-03-02T17:45:43.666Z,99654.16
2019-03-02T17:48:10.907Z,99653.30
2019-03-02T17:50:40.428Z,99652.78
2019-03-02T17:53:08.799Z,99660.00
2019-03-02T17:55:35.804Z,99661.27
2019-03-02T17:58:03.075Z,99656.61
2019-03-02T18:00:30.022Z,99657.41
2019-03-02T18:02:57.465Z,99663.31
2019-03-02T18:05:26.196Z,99661.65
2019-03-02T18:07:53.177Z,99658.69
2019-03-02T18:10:20.466Z,99659.95
2019-03-02T18:12:47.805Z,99657.80
2019-03-02T18:15:14.797Z,99654.36
2019-03-02T18:17:42.112Z,99658.06
2019-03-02T18:20:09.596Z,99658.47
2019-03-02T18:22:36.919Z,99663.17
2019-03-02T18:25:07.904Z,99662.33
2019-03-02T18:27:37.144Z,99658.94
2019-03-02T18:30:05.939Z,99664.39
2019-03-02T18:32:34.189Z,99665.27
2019-03-02T18:35:02.669Z,99668.20
2019-03-02T18:37:30.835Z,99666.52
2019-03-02T18:40:02.570Z,99665.64
2019-03-02T18:42:30.820Z,99669.88
2019-03-02T18:45:00.599Z,99669.42
2019-03-02T18:47:30.054Z,99665.62
2019-03-02T18:49:56.071Z,99664.77
2019-03-02T18:52:23.015Z,99663.90
2019-03-02T18:54:50.678Z,99661.73
2019-03-02T18:57:18.007Z,99659.59
2019-03-02T18:59:46.706Z,99660.39
2019-03-02T19:02:13.479Z,99661.22
2019-03-02T19:04:40.777Z,99655.29
2019-03-02T19:07:07.742Z,99652.33
2019-03-02T19:09:34.657Z,99649.80
2019-03-02T19:12:01.854Z,99649.78
2019-03-02T19:14:30.263Z,99656.56
2019-03-02T19:16:57.784Z,99655.31
2019-03-02T19:19:25.374Z,99660.44
2019-03-02T19:21:52.326Z,99654.51
2019-03-02T19:24:20.633Z,99659.59
2019-03-02T19:26:47.613Z,99660.86
2019-03-02T19:29:15.667Z,99662.53
2019-03-02T19:31:42.670Z,99655.31
2019-03-02T19:34:09.991Z,99654.02
2019-03-02T19:36:37.008Z,99651.03
2019-03-02T19:39:03.892Z,99659.02
2019-03-02T19:41:32.486Z,99666.59
2019-03-02T19:43:59.736Z,99658.97
2019-03-02T19:46:26.696Z,99642.05
2019-03-02T19:48:54.123Z,99630.22
2019-03-02T19:51:21.358Z,99637.52
2019-03-02T19:53:48.625Z,99623.09
2019-03-02T19:56:16.114Z,99629.88
2019-03-02T19:58:43.054Z,99629.00
2019-03-02T20:01:10.453Z,99630.72
2019-03-02T20:03:37.497Z,99637.09
2019-03-02T20:06:04.808Z,99631.62
2019-03-02T20:08:32.221Z,99630.34
2019-03-02T20:10:59.517Z,99629.45
2019-03-02T20:13:26.833Z,99635.85
2019-03-02T20:15:53.806Z,99632.44
2019-03-02T20:18:20.809Z,99628.20
2019-03-02T20:20:47.828Z,99634.98
2019-03-02T20:23:14.762Z,99631.17
2019-03-02T20:25:41.742Z,99631.12
2019-03-02T20:28:08.736Z,99638.30
2019-03-02T20:30:36.155Z,99636.59
2019-03-02T20:33:03.077Z,99630.64
2019-03-02T20:35:30.311Z,99634.87
2019-03-02T20:37:57.326Z,99636.15
2019-03-02T20:40:25.449Z,99634.83
2019-03-02T20:42:52.499Z,99626.35
2019-03-02T20:45:20.584Z,99622.99
2019-03-02T20:47:47.560Z,99622.52
2019-03-02T20:50:14.535Z,99628.00
2019-03-02T20:52:41.520Z,99628.79
2019-03-02T20:55:09.703Z,99621.95
2019-03-02T20:57:37.741Z,99624.07
2019-03-02T21:00:05.024Z,99622.75
2019-03-02T21:02:32.846Z,99615.09
2019-03-02T21:04:59.908Z,99619.30
2019-03-02T21:07:26.824Z,99617.58
2019-03-02T21:09:54.204Z,99619.67
2019-03-02T21:12:21.389Z,99611.65
2019-03-02T21:14:48.440Z,99613.31
2019-03-02T21:17:15.470Z,99614.22
2019-03-02T21:19:42.463Z,99610.89
2019-03-02T21:22:09.604Z,99604.53
2019-03-02T21:24:36.585Z,99598.17
2019-03-02T21:27:03.923Z,99604.53
2019-03-02T21:29:30.925Z,99610.01
2019-03-02T21:31:58.765Z,99602.87
2019-03-02T21:34:25.955Z,99604.11
2019-03-02T21:36:53.207Z,99609.95
2019-03-02T21:39:20.618Z,99601.98
2019-03-02T21:41:47.968Z,99599.87
2019-03-02T21:44:14.921Z,99596.09
2019-03-02T21:46:42.077Z,99593.14
2019-03-02T21:49:09.050Z,99593.97
2019-03-02T21:51:36.348Z,99593.91
2019-03-02T21:54:04.593Z,99578.60
2019-03-02T21:56:31.874Z,99573.58
2019-03-02T21:59:00.681Z,99569.34
2019-03-02T22:01:29.254Z,99570.66
2019-03-02T22:03:56.317Z,99562.59
2019-03-02T22:06:23.309Z,99564.83
2019-03-02T22:08:50.362Z,99561.07
2019-03-02T22:11:17.335Z,99566.27
2019-03-02T22:13:44.695Z,99564.08
2019-03-02T22:16:11.567Z,99556.77
2019-03-02T22:18:38.897Z,99552.82
2019-03-02T22:21:05.874Z,99548.91
2019-03-02T22:23:33.189Z,99534.84
2019-03-02T22:26:00.348Z,99535.65
2019-03-02T22:28:27.361Z,99539.01
2019-03-02T22:30:54.259Z,99546.57
2019-03-02T22:33:21.201Z,99545.66
2019-03-02T22:35:48.199Z,99547.06
2019-03-02T22:38:18.111Z,99545.32
2019-03-02T22:40:45.286Z,99538.41
2019-03-02T22:43:12.243Z,99533.97
2019-03-02T22:45:39.481Z,99522.66
2019-03-02T22:48:06.860Z,99525.14
2019-03-02T22:50:33.891Z,99524.75
2019-03-02T22:53:01.386Z,99520.51
2019-03-02T22:55:28.343Z,99518.00
2019-03-02T22:57:55.270Z,99514.61
2019-03-02T23:00:22.501Z,99513.39
2019-03-02T23:02:51.024Z,99507.53
2019-03-02T23:05:17.967Z,99498.39
2019-03-02T23:07:45.934Z,99496.77
2019-03-02T23:10:12.816Z,99494.70
2019-03-02T23:12:39.989Z,99487.17
2019-03-02T23:15:10.062Z,99485.57
2019-03-02T23:17:37.090Z,99483.91
2019-03-02T23:20:04.414Z,99494.92
2019-03-02T23:22:31.577Z,99490.27
2019-03-02T23:24:58.811Z,99489.78
2019-03-02T23:27:26.065Z,99484.66
2019-03-02T23:29:53.327Z,99479.55
2019-03-02T23:32:20.598Z,99476.98
2019-03-02T23:34:47.939Z,99475.64
2019-03-02T23:37:15.179Z,99478.45
2019-03-02T23:39:42.426Z,99469.91
2019-03-02T23:42:10.721Z,99468.93
2019-03-02T23:44:37.968Z,99462.12
2019-03-02T23:47:05.213Z,99466.25
2019-03-02T23:49:32.104Z,99455.66
2019-03-02T23:51:59.065Z,99456.08
2019-03-02T23:54:26.053Z,99449.37
2019-03-02T23:56:53.020Z,99454.09
2019-03-02T23:59:19.984Z,99452.34
